Time;durP1;ratioP1;P1;durP2;ratioP2;P2;SDS_P1;SDS_P2;PMS_P1;PMS_P2;Temp;Humidity;BMP_temperature;BMP_pressure;BME280_temperature;BME280_humidity;BME280_pressure;Samples;Min_cycle;Max_cycle;Signal;HPM_P1;HPM_P2
2022/12/12 00:00:52;;;;;;;7.22;3.35;;;-10.10;97.70;;;;;;4208467;28;20260;-67
2022/12/12 00:02:52;;;;;;;6.65;4.07;;;-10.10;97.90;;;;;;4202697;28;20176;-66
2022/12/12 00:04:56;;;;;;;7.67;4.13;;;-10.10;98.00;;;;;;4208725;28;20692;-68
2022/12/12 00:06:57;;;;;;;8.88;3.60;;;-10.10;98.00;;;;;;4203284;28;20184;-70
2022/12/12 00:08:57;;;;;;;8.00;3.77;;;-10.00;97.90;;;;;;4208200;28;20669;-69
2022/12/12 00:10:58;;;;;;;7.80;4.33;;;-10.00;97.90;;;;;;4202094;28;20180;-68
2022/12/12 00:12:59;;;;;;;5.63;3.53;;;-10.10;97.70;;;;;;4207021;28;20195;-67
2022/12/12 00:14:59;;;;;;;6.93;3.40;;;-10.10;97.40;;;;;;4202563;28;20195;-67
2022/12/12 00:17:00;;;;;;;7.70;3.70;;;-10.10;97.20;;;;;;4207288;28;20214;-69
2022/12/12 00:19:01;;;;;;;9.57;4.13;;;-10.10;97.20;;;;;;4203668;28;20189;-68
2022/12/12 00:21:12;;;;;;;10.13;5.13;;;-10.10;97.60;;;;;;4214189;28;20176;-69
2022/12/12 00:23:12;;;;;;;9.05;3.42;;;-10.20;97.70;;;;;;4213410;28;20191;-66
2022/12/12 00:25:13;;;;;;;7.03;2.73;;;-10.20;97.40;;;;;;4215058;28;20191;-66
2022/12/12 00:27:14;;;;;;;5.97;3.70;;;-10.20;97.20;;;;;;4214987;28;20208;-66
2022/12/12 00:29:15;;;;;;;7.93;4.30;;;-10.20;97.10;;;;;;4215008;28;20176;-66
2022/12/12 00:31:16;;;;;;;5.77;3.37;;;-10.20;97.20;;;;;;4214545;28;20190;-66
2022/12/12 00:33:17;;;;;;;5.13;3.13;;;-10.20;97.30;;;;;;4213323;28;20246;-67
2022/12/12 00:35:18;;;;;;;7.28;3.10;;;-10.20;97.40;;;;;;4214821;28;20214;-66
2022/12/12 00:37:19;;;;;;;6.37;3.87;;;-10.30;97.50;;;;;;4214483;28;20262;-66
2022/12/12 00:39:19;;;;;;;4.43;2.80;;;-10.20;97.90;;;;;;4214922;28;20183;-66
2022/12/12 00:41:21;;;;;;;7.43;3.57;;;-10.30;97.80;;;;;;4215051;28;20178;-66
2022/12/12 00:43:23;;;;;;;12.05;4.53;;;-10.30;97.60;;;;;;4212648;28;20263;-66
2022/12/12 00:45:24;;;;;;;6.13;3.33;;;-10.30;97.90;;;;;;4214979;28;20187;-66
2022/12/12 00:47:24;;;;;;;8.63;2.97;;;-10.30;97.80;;;;;;4214683;28;20182;-67
2022/12/12 00:49:25;;;;;;;5.33;2.77;;;-10.30;98.00;;;;;;4213450;28;20171;-66
2022/12/12 00:51:28;;;;;;;5.77;3.33;;;-10.40;97.90;;;;;;4212643;28;20181;-66
2022/12/12 00:53:29;;;;;;;5.57;2.90;;;-10.30;98.00;;;;;;4212440;28;20197;-66
2022/12/12 00:55:30;;;;;;;4.80;2.93;;;-10.40;97.70;;;;;;4213299;28;20651;-66
2022/12/12 00:57:30;;;;;;;6.07;2.80;;;-10.40;98.00;;;;;;4214507;28;20251;-66
2022/12/12 00:59:31;;;;;;;8.37;3.23;;;-10.40;98.10;;;;;;4214070;28;20210;-66
2022/12/12 01:01:35;;;;;;;6.90;3.87;;;-10.40;98.10;;;;;;4213620;28;20167;-66
2022/12/12 01:03:39;;;;;;;5.15;2.95;;;-10.40;98.10;;;;;;4213843;28;20199;-66
2022/12/12 01:05:40;;;;;;;7.28;3.90;;;-10.40;98.00;;;;;;4212981;28;20237;-66
2022/12/12 01:07:41;;;;;;;5.77;3.17;;;-10.40;98.10;;;;;;4214300;28;20183;-67
2022/12/12 01:09:42;;;;;;;6.88;3.17;;;-10.40;98.10;;;;;;4206798;28;20179;-66
2022/12/12 01:11:42;;;;;;;5.60;3.37;;;-10.50;97.60;;;;;;4197196;28;20609;-66
2022/12/12 01:13:45;;;;;;;5.77;3.33;;;-10.50;98.10;;;;;;4196708;28;20210;-66
2022/12/12 01:15:45;;;;;;;5.60;2.90;;;-10.50;97.40;;;;;;4197336;28;20229;-67
2022/12/12 01:17:46;;;;;;;6.73;3.90;;;-10.50;97.10;;;;;;4197251;28;20220;-65
2022/12/12 01:19:47;;;;;;;5.23;3.07;;;-10.50;96.60;;;;;;4197060;28;20210;-66
2022/12/12 01:21:47;;;;;;;6.23;2.83;;;-10.50;96.50;;;;;;4195875;28;20230;-66
2022/12/12 01:23:48;;;;;;;5.33;3.07;;;-10.50;96.40;;;;;;4196536;28;20204;-66
2022/12/12 01:25:49;;;;;;;4.95;3.15;;;-10.50;96.50;;;;;;4197054;28;20258;-66
2022/12/12 01:27:50;;;;;;;4.73;2.77;;;-10.60;96.30;;;;;;4195660;28;20237;-66
2022/12/12 01:29:51;;;;;;;10.30;3.67;;;-10.60;96.90;;;;;;4195833;28;20176;-66
2022/12/12 01:31:52;;;;;;;9.10;4.17;;;-10.60;97.00;;;;;;4196807;28;20198;-66
2022/12/12 01:33:52;;;;;;;7.90;2.83;;;-10.50;97.00;;;;;;4195000;28;20209;-66
2022/12/12 01:35:53;;;;;;;5.33;3.10;;;-10.50;97.10;;;;;;4197005;28;20216;-67
2022/12/12 01:37:54;;;;;;;5.87;2.97;;;-10.60;97.50;;;;;;4196962;28;20187;-67
2022/12/12 01:39:54;;;;;;;6.33;3.00;;;-10.60;97.30;;;;;;4195973;28;20259;-66
2022/12/12 01:41:55;;;;;;;5.30;3.33;;;-10.60;97.40;;;;;;4195200;28;20179;-66
2022/12/12 01:44:01;;;;;;;3.90;2.73;;;-10.60;97.20;;;;;;4196280;28;20270;-66
2022/12/12 01:46:01;;;;;;;6.97;3.42;;;-10.50;97.50;;;;;;4196708;28;20194;-66
2022/12/12 01:48:02;;;;;;;5.17;2.80;;;-10.60;97.50;;;;;;4196893;28;20197;-66
2022/12/12 01:50:08;;;;;;;4.07;2.33;;;-10.60;97.50;;;;;;4195234;28;20189;-66
2022/12/12 01:52:15;;;;;;;2.72;2.40;;;-10.60;97.30;;;;;;4191089;28;20267;-66
2022/12/12 01:54:26;;;;;;;8.88;3.08;;;-10.60;97.40;;;;;;4180511;28;20703;-66
2022/12/12 01:56:27;;;;;;;4.00;2.20;;;-10.60;97.20;;;;;;4179824;28;20202;-66
2022/12/12 01:58:30;;;;;;;5.70;3.22;;;-10.60;97.00;;;;;;4178519;28;20216;-66
2022/12/12 02:00:31;;;;;;;4.05;2.30;;;-10.60;96.60;;;;;;4178770;28;20169;-66
2022/12/12 02:02:32;;;;;;;4.00;2.17;;;-10.60;96.80;;;;;;4177971;28;20188;-66
2022/12/12 02:04:33;;;;;;;3.73;2.67;;;-10.60;97.00;;;;;;4178882;28;21034;-66
2022/12/12 02:06:34;;;;;;;4.97;2.42;;;-10.60;96.90;;;;;;4178910;28;20176;-66
2022/12/12 02:08:36;;;;;;;5.10;3.20;;;-10.70;96.40;;;;;;4180126;28;20680;-66
2022/12/12 02:10:37;;;;;;;6.72;2.58;;;-10.60;97.20;;;;;;4180013;28;20180;-66
2022/12/12 02:12:38;;;;;;;6.10;2.87;;;-10.60;98.00;;;;;;4178060;28;20687;-66
2022/12/12 02:14:44;;;;;;;2.90;2.07;;;-10.60;98.20;;;;;;4161873;28;20619;-66
2022/12/12 02:17:23;;;;;;;4.50;2.25;;;-10.50;98.20;;;;;;4179686;28;20171;-66
2022/12/12 02:20:14;;;;;;;3.00;1.85;;;-10.60;97.80;;;;;;4179619;28;20168;-66
2022/12/12 02:22:42;;;;;;;3.78;2.05;;;-10.60;97.60;;;;;;4161221;28;20183;-66
2022/12/12 02:25:00;;;;;;;4.00;2.17;;;-10.60;97.20;;;;;;4178680;28;20199;-66
2022/12/12 02:27:38;;;;;;;4.68;2.25;;;-10.60;97.20;;;;;;4178479;28;20257;-65
2022/12/12 02:30:10;;;;;;;4.68;2.20;;;-10.60;98.00;;;;;;4178702;28;20180;-65
2022/12/12 02:33:02;;;;;;;4.32;1.80;;;-10.70;97.50;;;;;;4177885;28;20679;-65
2022/12/12 02:35:19;;;;;;;2.72;1.92;;;-10.70;97.00;;;;;;4156919;28;20224;-66
2022/12/12 02:37:31;;;;;;;4.10;2.22;;;-10.70;96.80;;;;;;4178088;28;20234;-65
2022/12/12 02:39:53;;;;;;;2.78;1.83;;;-10.70;96.30;;;;;;4178191;28;20169;-65
2022/12/12 02:42:04;;;;;;;4.40;2.50;;;-10.60;96.60;;;;;;4179232;28;20184;-65
2022/12/12 02:44:26;;;;;;;4.38;2.03;;;-10.70;96.70;;;;;;4161062;28;20279;-65
2022/12/12 02:46:50;;;;;;;2.83;1.77;;;-10.70;97.10;;;;;;4178025;28;20172;-65
2022/12/12 02:49:05;;;;;;;2.53;1.75;;;-10.80;96.90;;;;;;4178004;28;20277;-65
2022/12/12 02:51:09;;;;;;;3.38;2.13;;;-10.80;97.30;;;;;;4177748;28;20643;-65
2022/12/12 02:53:10;;;;;;;4.47;2.15;;;-10.80;96.80;;;;;;4178925;28;20239;-66
2022/12/12 02:55:11;;;;;;;3.57;2.30;;;-10.70;96.50;;;;;;4177917;28;20196;-65
2022/12/12 02:57:24;;;;;;;3.42;2.03;;;-10.70;96.40;;;;;;4179018;28;20245;-65
2022/12/12 02:59:30;;;;;;;7.15;3.00;;;-10.70;97.00;;;;;;4179603;28;20294;-65
2022/12/12 03:02:00;;;;;;;4.55;1.80;;;-10.80;97.30;;;;;;4177875;28;20194;-65
2022/12/12 03:10:09;;;;;;;3.05;1.85;;;-10.70;97.10;;;;;;4177956;28;20274;-65
2022/12/12 03:12:40;;;;;;;1.58;1.48;;;-10.80;96.50;;;;;;4185190;28;20191;-65
2022/12/12 03:15:04;;;;;;;3.95;1.85;;;-10.80;96.20;;;;;;4193921;28;20262;-65
2022/12/12 03:17:26;;;;;;;2.92;1.70;;;-10.70;96.50;;;;;;4197649;28;20168;-65
2022/12/12 03:20:12;;;;;;;2.03;1.33;;;-10.70;97.40;;;;;;4197405;28;20180;-65
2022/12/12 03:22:34;;;;;;;3.50;1.80;;;-10.80;97.70;;;;;;4184814;28;20816;-65
2022/12/12 03:25:05;;;;;;;3.15;2.00;;;-10.80;97.40;;;;;;4198607;28;20633;-65
2022/12/12 03:27:35;;;;;;;2.20;1.70;;;-10.80;97.50;;;;;;4196316;28;20396;-65
2022/12/12 03:29:52;;;;;;;3.65;1.80;;;-10.80;97.70;;;;;;4197250;28;20244;-65
2022/12/12 03:32:03;;;;;;;2.92;2.22;;;-10.80;97.60;;;;;;4197329;28;20183;-65
2022/12/12 03:34:18;;;;;;;2.25;1.77;;;-10.80;97.80;;;;;;4196837;28;20203;-65
2022/12/12 03:36:27;;;;;;;3.85;1.92;;;-10.90;97.90;;;;;;4199284;28;20267;-65
2022/12/12 03:38:37;;;;;;;1.55;1.27;;;-10.80;97.40;;;;;;4199176;28;20696;-65
2022/12/12 03:40:50;;;;;;;3.03;1.80;;;-10.80;97.40;;;;;;4197707;28;20163;-67
2022/12/12 03:43:33;;;;;;;2.55;2.08;;;-10.80;97.50;;;;;;4197139;28;20168;-64
2022/12/12 03:45:57;;;;;;;1.88;1.48;;;-10.80;97.60;;;;;;4175495;28;20192;-66
2022/12/12 03:48:21;;;;;;;3.15;2.05;;;-10.70;97.90;;;;;;4197415;28;20326;-69
2022/12/12 03:50:27;;;;;;;2.33;1.85;;;-10.80;97.70;;;;;;4193629;28;20188;-66
2022/12/12 03:52:47;;;;;;;4.70;1.75;;;-10.80;97.40;;;;;;4196613;28;20237;-65
2022/12/12 03:55:16;;;;;;;5.28;2.05;;;-10.80;97.10;;;;;;4197244;28;20214;-65
2022/12/12 03:57:26;;;;;;;1.88;1.48;;;-10.80;96.60;;;;;;4193279;28;20220;-65
2022/12/12 03:59:46;;;;;;;4.57;2.05;;;-10.80;96.60;;;;;;4197199;28;20180;-65
2022/12/12 04:02:00;;;;;;;2.60;1.50;;;-10.90;96.60;;;;;;4197304;28;20211;-66
2022/12/12 04:04:30;;;;;;;3.42;1.67;;;-10.80;96.70;;;;;;4196384;28;20196;-65
2022/12/12 04:06:45;;;;;;;2.65;1.60;;;-10.80;97.20;;;;;;4197040;28;20175;-65
2022/12/12 04:13:58;;;;;;;1.67;1.55;;;-10.90;96.90;;;;;;4196265;28;20214;-65
2022/12/12 04:16:26;;;;;;;3.60;1.67;;;-10.90;96.60;;;;;;4198223;28;20341;-65
2022/12/12 04:18:45;;;;;;;1.70;1.02;;;-10.90;96.40;;;;;;4197741;28;20271;-65
2022/12/12 04:24:28;;;;;;;2.05;1.50;;;-11.00;96.00;;;;;;4199181;28;20295;-65
2022/12/12 04:27:05;;;;;;;2.13;1.23;;;-11.00;95.60;;;;;;4198922;28;20171;-65
2022/12/12 04:29:08;;;;;;;2.83;2.28;;;-11.10;95.60;;;;;;4197663;28;20199;-65
2022/12/12 04:31:11;;;;;;;3.30;2.00;;;-11.10;96.00;;;;;;4200311;28;20206;-65
2022/12/12 04:33:15;;;;;;;2.72;1.65;;;-11.00;96.50;;;;;;4198826;28;20243;-65
2022/12/12 04:35:26;;;;;;;3.05;1.75;;;-11.00;97.00;;;;;;4198355;28;20690;-65
2022/12/12 04:37:48;;;;;;;1.80;1.52;;;-11.00;97.10;;;;;;4197804;28;20700;-65
2022/12/12 04:39:53;;;;;;;1.90;1.33;;;-11.00;97.30;;;;;;4196581;28;20159;-65
2022/12/12 04:41:55;;;;;;;2.60;1.42;;;-11.00;98.00;;;;;;4197044;28;20192;-65
2022/12/12 04:43:58;;;;;;;2.60;1.38;;;-11.00;98.10;;;;;;4195960;28;20227;-65
2022/12/12 04:46:04;;;;;;;2.33;1.90;;;-11.00;97.70;;;;;;4197784;28;20193;-65
2022/12/12 04:48:08;;;;;;;2.33;1.65;;;-11.00;97.70;;;;;;4196274;28;20247;-65
2022/12/12 04:50:10;;;;;;;10.95;2.42;;;-11.00;97.50;;;;;;4196216;28;20282;-65
2022/12/12 04:52:14;;;;;;;4.10;2.45;;;-11.00;96.80;;;;;;4197184;28;20222;-64
2022/12/12 04:54:36;;;;;;;2.47;1.80;;;-11.00;96.20;;;;;;4197688;28;20211;-64
2022/12/12 04:56:39;;;;;;;2.63;1.90;;;-11.00;96.30;;;;;;4195796;28;20199;-65
2022/12/12 04:58:40;;;;;;;3.03;1.80;;;-11.10;96.40;;;;;;4197050;28;20200;-64
2022/12/12 05:00:57;;;;;;;5.32;1.95;;;-11.20;96.30;;;;;;4195644;28;20765;-65
2022/12/12 05:03:12;;;;;;;4.43;1.83;;;-11.20;96.20;;;;;;4195086;28;20183;-65
2022/12/12 05:05:41;;;;;;;3.42;2.10;;;-11.20;96.40;;;;;;4196743;28;20172;-65
2022/12/12 05:07:51;;;;;;;2.38;1.30;;;-11.20;96.40;;;;;;4195576;28;20648;-64
2022/12/12 05:09:51;;;;;;;1.20;1.05;;;-11.20;96.70;;;;;;4196340;28;20635;-65
2022/12/12 05:11:52;;;;;;;1.53;1.17;;;-11.10;97.00;;;;;;4196486;28;20196;-65
2022/12/12 05:13:53;;;;;;;1.67;1.10;;;-11.10;97.20;;;;;;4194824;28;20219;-65
2022/12/12 05:15:55;;;;;;;2.93;1.40;;;-11.10;97.70;;;;;;4196440;28;20272;-63
2022/12/12 05:18:02;;;;;;;2.50;1.52;;;-11.20;97.10;;;;;;4195656;28;20211;-65
2022/12/12 05:20:04;;;;;;;13.02;10.15;;;-11.20;96.90;;;;;;4196657;28;20171;-64
2022/12/12 05:22:04;;;;;;;7.38;5.18;;;-11.20;97.00;;;;;;4196597;28;20188;-65
2022/12/12 05:24:05;;;;;;;3.97;2.97;;;-11.20;96.60;;;;;;4194731;28;20210;-64
2022/12/12 05:26:19;;;;;;;2.53;2.00;;;-11.20;97.20;;;;;;4193168;28;20408;-65
2022/12/12 05:28:20;;;;;;;1.50;1.40;;;-11.20;96.50;;;;;;4191764;28;20203;-64
2022/12/12 05:30:22;;;;;;;1.87;1.30;;;-11.10;97.00;;;;;;4196533;28;20406;-64
2022/12/12 05:32:22;;;;;;;3.03;1.83;;;-11.10;97.20;;;;;;4194779;28;20180;-65
2022/12/12 05:34:23;;;;;;;2.27;1.33;;;-11.10;97.00;;;;;;4196734;28;20237;-64
2022/12/12 05:36:24;;;;;;;2.70;1.50;;;-11.10;97.40;;;;;;4197082;28;20201;-64
2022/12/12 05:38:25;;;;;;;2.00;1.73;;;-11.10;97.50;;;;;;4196168;28;20207;-65
2022/12/12 05:40:25;;;;;;;3.07;1.60;;;-11.20;97.30;;;;;;4195444;28;20549;-65
2022/12/12 05:42:26;;;;;;;3.10;1.80;;;-11.20;96.90;;;;;;4195951;28;20176;-65
2022/12/12 05:44:27;;;;;;;2.27;1.90;;;-11.20;97.10;;;;;;4196029;28;20210;-65
2022/12/12 05:46:27;;;;;;;3.20;2.03;;;-11.20;96.90;;;;;;4196438;28;20180;-65
2022/12/12 05:48:28;;;;;;;2.50;1.63;;;-11.20;97.00;;;;;;4184287;28;20183;-64
2022/12/12 05:50:29;;;;;;;7.23;2.07;;;-11.20;97.20;;;;;;4179756;28;20187;-65
2022/12/12 05:52:29;;;;;;;2.63;1.90;;;-11.20;97.40;;;;;;4179408;28;20917;-65
2022/12/12 05:54:30;;;;;;;3.70;2.33;;;-11.30;97.40;;;;;;4179927;28;20215;-66
2022/12/12 05:56:31;;;;;;;3.17;2.10;;;-11.30;98.00;;;;;;4179611;28;20199;-65
2022/12/12 05:58:32;;;;;;;1.87;1.60;;;-11.30;97.80;;;;;;4179586;28;20192;-65
2022/12/12 06:00:32;;;;;;;4.93;2.23;;;-11.30;97.70;;;;;;4179551;28;20176;-65
2022/12/12 06:02:33;;;;;;;3.77;2.10;;;-11.20;97.70;;;;;;4178915;28;20181;-64
2022/12/12 06:04:34;;;;;;;5.33;2.60;;;-11.20;97.60;;;;;;4179799;28;20637;-64
2022/12/12 06:06:34;;;;;;;4.23;2.40;;;-11.30;97.30;;;;;;4179457;28;20191;-64
2022/12/12 06:08:36;;;;;;;5.07;2.03;;;-11.30;97.00;;;;;;4179462;28;20180;-64
2022/12/12 06:10:36;;;;;;;3.67;2.35;;;-11.30;97.20;;;;;;4179482;28;20188;-64
2022/12/12 06:12:38;;;;;;;6.07;2.20;;;-11.40;96.80;;;;;;4178890;28;20204;-63
2022/12/12 06:14:39;;;;;;;9.13;3.25;;;-11.40;96.60;;;;;;4178283;28;20232;-63
2022/12/12 06:16:40;;;;;;;6.37;2.87;;;-11.40;96.70;;;;;;4179425;28;20251;-64
2022/12/12 06:18:41;;;;;;;5.00;2.93;;;-11.30;97.00;;;;;;4179391;28;20181;-63
2022/12/12 06:20:41;;;;;;;4.83;2.00;;;-11.40;96.70;;;;;;4178000;28;20180;-63
2022/12/12 06:22:42;;;;;;;6.47;2.00;;;-11.40;96.50;;;;;;4178917;28;20266;-64
2022/12/12 06:24:43;;;;;;;3.43;1.93;;;-11.40;97.00;;;;;;4179957;28;20181;-64
2022/12/12 06:26:44;;;;;;;2.67;2.33;;;-11.30;97.20;;;;;;4179817;28;20176;-64
2022/12/12 06:28:45;;;;;;;7.27;2.40;;;-11.40;97.50;;;;;;4178583;28;20203;-64
2022/12/12 06:30:46;;;;;;;5.85;2.90;;;-11.40;97.30;;;;;;4179708;28;20187;-64
2022/12/12 06:32:47;;;;;;;4.00;2.13;;;-11.40;97.00;;;;;;4179058;28;20184;-64
2022/12/12 06:34:47;;;;;;;4.53;2.47;;;-11.40;97.00;;;;;;4179525;28;20187;-64
2022/12/12 06:36:48;;;;;;;4.47;2.13;;;-11.40;96.70;;;;;;4178108;28;20636;-64
2022/12/12 06:38:59;;;;;;;3.80;2.60;;;-11.30;96.20;;;;;;4179208;28;20191;-64
2022/12/12 06:41:08;;;;;;;4.93;2.70;;;-11.40;96.60;;;;;;4179467;28;20207;-64
2022/12/12 06:43:09;;;;;;;4.18;2.85;;;-11.40;96.70;;;;;;4178455;28;20239;-64
2022/12/12 06:45:10;;;;;;;6.53;2.20;;;-11.40;96.50;;;;;;4179031;28;20181;-64
2022/12/12 06:47:10;;;;;;;3.60;2.33;;;-11.40;96.80;;;;;;4179229;28;20663;-63
2022/12/12 06:49:11;;;;;;;4.57;2.37;;;-11.30;96.70;;;;;;4178683;28;20287;-63
2022/12/12 06:51:21;;;;;;;5.13;2.70;;;-11.40;96.40;;;;;;4178604;28;20276;-64
2022/12/12 06:53:22;;;;;;;6.25;3.75;;;-11.50;96.10;;;;;;4178523;28;20200;-64
2022/12/12 06:55:23;;;;;;;7.10;3.03;;;-11.40;96.10;;;;;;4179221;28;20204;-63
2022/12/12 06:57:23;;;;;;;8.03;3.07;;;-11.50;95.80;;;;;;4179031;28;20246;-63
2022/12/12 06:59:24;;;;;;;7.50;3.47;;;-11.50;95.80;;;;;;4178922;28;20188;-64
2022/12/12 07:01:25;;;;;;;5.63;2.73;;;-11.50;96.10;;;;;;4178950;28;20184;-63
2022/12/12 07:03:25;;;;;;;6.17;2.93;;;-11.50;96.40;;;;;;4178321;28;20196;-64
2022/12/12 07:05:26;;;;;;;5.80;3.37;;;-11.50;96.50;;;;;;4179137;28;20188;-64
2022/12/12 07:07:27;;;;;;;5.80;2.60;;;-11.50;97.10;;;;;;4188063;28;20175;-63
2022/12/12 07:09:27;;;;;;;2.67;2.13;;;-11.50;97.10;;;;;;4195480;28;20184;-64
2022/12/12 07:11:28;;;;;;;3.13;1.90;;;-11.40;97.10;;;;;;4194082;28;20199;-63
2022/12/12 07:13:29;;;;;;;4.00;2.73;;;-11.40;96.90;;;;;;4195174;28;20203;-64
2022/12/12 07:15:30;;;;;;;7.07;2.73;;;-11.40;96.30;;;;;;4195375;28;20243;-64
2022/12/12 07:17:30;;;;;;;3.47;2.58;;;-11.40;95.90;;;;;;4193861;28;20262;-64
2022/12/12 07:19:31;;;;;;;5.60;2.13;;;-11.40;95.60;;;;;;4195217;28;20191;-63
2022/12/12 07:21:32;;;;;;;3.80;2.03;;;-11.40;95.40;;;;;;4195194;28;20241;-64
2022/12/12 07:23:33;;;;;;;3.00;2.30;;;-11.40;95.40;;;;;;4194809;28;20198;-64
2022/12/12 07:25:41;;;;;;;4.38;2.42;;;-11.40;95.60;;;;;;4195431;28;20190;-64
2022/12/12 07:27:42;;;;;;;7.30;2.03;;;-11.30;96.10;;;;;;4193932;28;20245;-63
2022/12/12 07:29:43;;;;;;;3.77;2.27;;;-11.30;96.40;;;;;;4195247;28;20638;-63
2022/12/12 07:31:43;;;;;;;3.93;2.60;;;-11.30;96.50;;;;;;4193947;28;20180;-64
2022/12/12 07:33:44;;;;;;;3.37;2.67;;;-11.20;96.70;;;;;;4195331;28;20199;-64
2022/12/12 07:35:45;;;;;;;4.57;2.40;;;-11.20;96.80;;;;;;4196276;28;20693;-64
2022/12/12 07:37:46;;;;;;;3.53;2.10;;;-11.20;96.50;;;;;;4195222;28;20184;-64
2022/12/12 07:39:47;;;;;;;2.90;1.93;;;-11.10;96.80;;;;;;4195256;28;20277;-64
2022/12/12 07:41:47;;;;;;;2.13;1.60;;;-11.00;96.10;;;;;;4195253;28;20203;-63
2022/12/12 07:43:49;;;;;;;3.10;2.10;;;-11.00;95.70;;;;;;4194630;28;20196;-64
2022/12/12 07:45:50;;;;;;;3.40;2.13;;;-11.00;95.40;;;;;;4195049;28;20184;-64
2022/12/12 07:47:51;;;;;;;4.23;1.90;;;-11.00;95.10;;;;;;4189731;28;20789;-63
2022/12/12 07:49:53;;;;;;;5.75;2.35;;;-10.90;95.00;;;;;;4178322;28;20242;-63
2022/12/12 07:51:54;;;;;;;3.90;2.00;;;-10.80;95.20;;;;;;4178458;28;20259;-63
2022/12/12 07:53:55;;;;;;;3.17;2.30;;;-10.70;95.00;;;;;;4177796;28;20211;-64
2022/12/12 07:55:55;;;;;;;3.93;2.13;;;-10.80;95.00;;;;;;4178382;28;20646;-63
2022/12/12 07:57:56;;;;;;;3.30;2.10;;;-10.80;94.80;;;;;;4178573;28;20208;-64
2022/12/12 07:59:57;;;;;;;3.90;2.93;;;-10.80;94.70;;;;;;4178493;28;20183;-63
2022/12/12 08:01:58;;;;;;;4.23;2.40;;;-10.70;94.70;;;;;;4180441;28;20200;-63
2022/12/12 08:03:58;;;;;;;3.33;2.23;;;-10.70;94.70;;;;;;4180646;28;20203;-63
2022/12/12 08:05:59;;;;;;;4.13;2.77;;;-10.60;94.40;;;;;;4181317;28;20246;-64
2022/12/12 08:08:00;;;;;;;3.17;2.00;;;-10.60;94.40;;;;;;4181235;28;20189;-63
2022/12/12 08:10:01;;;;;;;8.57;2.30;;;-10.50;94.20;;;;;;4181140;28;20655;-63
2022/12/12 08:12:02;;;;;;;4.90;2.22;;;-10.50;94.10;;;;;;4180974;28;20196;-63
2022/12/12 08:14:06;;;;;;;3.63;2.43;;;-10.40;94.10;;;;;;4180340;28;20548;-63
2022/12/12 08:16:14;;;;;;;4.78;2.47;;;-10.30;94.20;;;;;;4180935;28;20228;-63
2022/12/12 08:18:14;;;;;;;2.50;1.95;;;-10.30;94.00;;;;;;4179846;28;20199;-63
2022/12/12 08:20:16;;;;;;;3.77;2.33;;;-10.20;94.10;;;;;;4181329;28;20185;-64
2022/12/12 08:22:16;;;;;;;3.85;2.17;;;-10.10;94.10;;;;;;4180319;28;20184;-63
2022/12/12 08:24:17;;;;;;;3.10;2.60;;;-10.10;94.10;;;;;;4179900;28;20201;-63
2022/12/12 08:26:18;;;;;;;11.50;3.13;;;-10.00;94.20;;;;;;4181022;28;20187;-64
2022/12/12 08:28:19;;;;;;;10.07;5.45;;;-9.90;94.30;;;;;;4180938;28;20238;-64
2022/12/12 08:30:20;;;;;;;8.73;4.70;;;-9.80;94.40;;;;;;4181011;28;20187;-64
2022/12/12 08:32:21;;;;;;;6.95;4.88;;;-9.80;94.70;;;;;;4180578;28;20259;-64
2022/12/12 08:34:21;;;;;;;8.23;4.93;;;-9.80;94.80;;;;;;4181135;28;20219;-64
2022/12/12 08:36:30;;;;;;;11.10;5.83;;;-9.60;94.60;;;;;;4193770;28;20220;-64
2022/12/12 08:38:30;;;;;;;8.18;5.53;;;-9.50;94.40;;;;;;4197768;28;20171;-64
2022/12/12 08:40:31;;;;;;;7.07;4.80;;;-9.40;94.30;;;;;;4196143;28;20178;-64
2022/12/12 08:42:32;;;;;;;8.57;5.67;;;-9.30;94.30;;;;;;4195479;28;21024;-64
2022/12/12 08:44:32;;;;;;;9.70;6.87;;;-9.20;94.30;;;;;;4197789;28;20197;-63
2022/12/12 08:46:33;;;;;;;16.13;7.60;;;-9.20;94.30;;;;;;4197038;28;20865;-63
2022/12/12 08:48:34;;;;;;;18.15;9.57;;;-9.10;94.40;;;;;;4201188;28;20252;-63
2022/12/12 08:50:38;;;;;;;18.53;9.23;;;-9.00;94.80;;;;;;4196432;28;20680;-64
2022/12/12 08:52:39;;;;;;;19.70;10.57;;;-8.90;95.20;;;;;;4197482;28;20191;-64
2022/12/12 08:54:40;;;;;;;16.13;10.33;;;-8.70;95.00;;;;;;4197947;28;20244;-63
2022/12/12 08:56:40;;;;;;;16.73;8.60;;;-8.50;95.00;;;;;;4196224;28;20218;-63
2022/12/12 08:58:42;;;;;;;20.00;11.80;;;-8.30;94.80;;;;;;4195334;28;20180;-63
2022/12/12 09:00:43;;;;;;;16.33;9.68;;;-8.30;95.40;;;;;;4196896;28;20188;-64
2022/12/12 09:02:44;;;;;;;12.80;8.03;;;-8.10;95.50;;;;;;4194941;28;20180;-63
2022/12/12 09:04:45;;;;;;;9.77;5.67;;;-7.80;95.30;;;;;;4196759;28;20670;-64
2022/12/12 09:06:46;;;;;;;9.23;5.70;;;-7.60;94.30;;;;;;4196663;28;20422;-64
2022/12/12 09:08:47;;;;;;;13.10;6.83;;;-7.50;94.10;;;;;;4196758;28;20188;-64
2022/12/12 09:10:49;;;;;;;28.67;10.87;;;-7.40;93.90;;;;;;4194884;28;20256;-64
2022/12/12 09:12:50;;;;;;;19.58;9.30;;;-7.40;94.50;;;;;;4195295;28;20417;-64
2022/12/12 09:14:50;;;;;;;26.23;12.00;;;-7.30;94.70;;;;;;4196566;28;20187;-64
2022/12/12 09:16:51;;;;;;;25.50;12.17;;;-7.10;94.50;;;;;;4196547;28;20647;-64
2022/12/12 09:18:52;;;;;;;28.77;14.40;;;-6.90;94.30;;;;;;4196572;28;20825;-65
2022/12/12 09:20:56;;;;;;;28.17;16.20;;;-6.70;94.10;;;;;;4196195;28;20767;-64
2022/12/12 09:22:56;;;;;;;28.30;14.80;;;-6.50;93.50;;;;;;4195599;28;20183;-64
2022/12/12 09:24:57;;;;;;;78.57;20.20;;;-6.30;95.40;;;;;;4196360;28;20563;-64
2022/12/12 09:26:58;;;;;;;38.97;19.17;;;-5.80;99.70;;;;;;4196310;28;20187;-64
2022/12/12 09:28:58;;;;;;;22.60;13.13;;;-5.20;99.90;;;;;;4196160;28;20232;-64
2022/12/12 09:30:59;;;;;;;25.90;15.00;;;-4.50;99.90;;;;;;4196435;28;20183;-64
2022/12/12 09:33:00;;;;;;;92.80;25.47;;;-3.90;99.90;;;;;;4196444;28;20167;-64
2022/12/12 09:35:00;;;;;;;77.77;25.53;;;-3.30;99.90;;;;;;4196647;28;20821;-65
2022/12/12 09:37:01;;;;;;;29.63;16.43;;;-2.80;99.90;;;;;;4195260;28;20667;-65
2022/12/12 09:39:02;;;;;;;25.43;14.00;;;-2.60;99.90;;;;;;4195472;28;20629;-66
2022/12/12 09:41:18;;;;;;;20.23;10.80;;;-2.30;99.90;;;;;;4196383;28;20316;-63
2022/12/12 09:43:25;;;;;;;17.13;10.30;;;-2.10;99.90;;;;;;4191466;28;20454;-65
2022/12/12 09:45:36;;;;;;;18.20;9.37;;;-1.70;99.90;;;;;;4178473;28;20416;-66
2022/12/12 09:47:43;;;;;;;20.30;12.67;;;-1.30;99.90;;;;;;4179511;28;20567;-67
2022/12/12 09:49:50;;;;;;;22.93;12.10;;;-1.00;99.90;;;;;;4180117;28;20489;-66
2022/12/12 09:51:52;;;;;;;16.37;10.17;;;-0.80;99.90;;;;;;4190794;28;20528;-67
2022/12/12 09:53:53;;;;;;;19.00;11.57;;;-0.60;98.20;;;;;;4192949;28;20488;-66
2022/12/12 09:56:17;;;;;;;18.87;12.17;;;-0.30;98.00;;;;;;4195773;28;20475;-65
2022/12/12 09:58:38;;;;;;;17.53;12.67;;;-0.10;99.10;;;;;;4194238;28;20209;-65
2022/12/12 10:00:47;;;;;;;17.10;11.27;;;0.40;98.10;;;;;;4200376;28;20900;-65
2022/12/12 10:03:21;;;;;;;18.50;11.27;;;1.00;93.70;;;;;;4201173;28;20444;-65
2022/12/12 10:06:03;;;;;;;16.87;10.90;;;0.90;87.70;;;;;;4205196;28;20462;-66
2022/12/12 10:08:32;;;;;;;18.57;10.50;;;1.60;90.40;;;;;;4195086;28;20441;-67
2022/12/12 10:10:39;;;;;;;15.63;9.10;;;2.20;82.20;;;;;;4184044;28;20931;-67
2022/12/12 10:12:40;;;;;;;11.53;6.73;;;2.70;86.80;;;;;;4207255;28;20928;-66
2022/12/12 10:14:57;;;;;;;12.70;7.57;;;3.20;84.70;;;;;;4197483;28;20520;-66
2022/12/12 10:17:02;;;;;;;11.20;6.10;;;3.60;77.00;;;;;;4204369;28;20422;-67
2022/12/12 10:19:19;;;;;;;8.93;5.57;;;4.00;74.80;;;;;;4200476;28;20215;-66
2022/12/12 10:21:26;;;;;;;6.80;4.43;;;3.80;67.30;;;;;;4194037;28;20654;-66
2022/12/12 10:23:44;;;;;;;7.23;4.70;;;3.50;71.00;;;;;;4196115;28;20264;-65
2022/12/12 10:25:56;;;;;;;6.80;4.53;;;3.30;62.10;;;;;;4193947;28;20221;-66
2022/12/12 10:28:12;;;;;;;7.00;4.63;;;2.70;59.50;;;;;;4197937;28;20546;-65
2022/12/12 10:30:18;;;;;;;6.53;4.67;;;1.80;63.50;;;;;;4194843;28;20168;-66
2022/12/12 10:33:07;;;;;;;8.90;6.33;;;1.10;68.30;;;;;;4188689;28;20782;-66
2022/12/12 10:35:22;;;;;;;7.57;4.47;;;1.10;67.30;;;;;;4193204;28;20174;-64
2022/12/12 10:38:04;;;;;;;6.27;4.20;;;1.10;67.20;;;;;;4193784;28;20213;-63
2022/12/12 10:40:29;;;;;;;5.80;3.57;;;0.70;66.90;;;;;;4186879;28;20196;-66
2022/12/12 10:42:43;;;;;;;7.30;4.10;;;0.60;67.60;;;;;;4194776;28;20649;-65
2022/12/12 10:45:02;;;;;;;5.60;4.27;;;1.00;68.60;;;;;;4193565;28;20178;-64
2022/12/12 10:47:09;;;;;;;6.33;4.30;;;1.10;64.40;;;;;;4195102;28;20252;-65
2022/12/12 10:49:19;;;;;;;6.17;4.07;;;1.10;65.60;;;;;;4203877;28;20276;-66
2022/12/12 10:51:23;;;;;;;7.03;4.70;;;1.40;63.00;;;;;;4194039;28;20178;-65
2022/12/12 10:53:24;;;;;;;8.97;4.67;;;1.50;64.20;;;;;;4193293;28;20218;-65
2022/12/12 10:55:52;;;;;;;6.30;4.70;;;1.60;63.50;;;;;;4198435;28;20203;-65
2022/12/12 10:58:02;;;;;;;7.93;4.70;;;1.70;62.20;;;;;;4194796;28;20160;-66
2022/12/12 11:00:27;;;;;;;5.97;4.20;;;2.00;61.60;;;;;;4204152;28;20185;-67
2022/12/12 11:02:40;;;;;;;6.13;4.20;;;2.00;59.90;;;;;;4195250;28;20265;-67
2022/12/12 11:04:43;;;;;;;6.50;4.10;;;1.50;61.60;;;;;;4194725;28;20351;-67
2022/12/12 11:06:50;;;;;;;6.87;4.37;;;1.50;62.40;;;;;;4194922;28;20198;-66